createdAt,value
2018-11-06T00:00:27.484Z,84.50
2018-11-06T00:00:58.650Z,84.75
2018-11-06T00:01:29.755Z,84.61
2018-11-06T00:02:01.395Z,84.46
2018-11-06T00:02:32.517Z,85.21
2018-11-06T00:03:03.684Z,85.14
2018-11-06T00:03:34.791Z,84.81
2018-11-06T00:04:05.909Z,85.42
2018-11-06T00:04:37.074Z,86.01
2018-11-06T00:05:08.198Z,85.66
2018-11-06T00:05:39.323Z,85.86
2018-11-06T00:06:10.433Z,85.63
2018-11-06T00:06:41.584Z,85.95
2018-11-06T00:07:12.727Z,85.44
2018-11-06T00:07:43.844Z,85.56
2018-11-06T00:08:14.947Z,85.57
2018-11-06T00:08:46.098Z,85.52
2018-11-06T00:09:17.238Z,85.68
2018-11-06T00:09:48.350Z,85.32
2018-11-06T00:10:19.506Z,85.24
2018-11-06T00:10:50.688Z,85.10
2018-11-06T00:11:21.831Z,85.10
2018-11-06T00:11:52.988Z,85.19
2018-11-06T00:12:24.081Z,84.95
2018-11-06T00:12:55.217Z,84.78
2018-11-06T00:13:26.343Z,84.91
2018-11-06T00:13:57.459Z,84.50
2018-11-06T00:14:28.596Z,84.89
2018-11-06T00:14:59.695Z,84.61
2018-11-06T00:15:30.826Z,84.31
2018-11-06T00:16:01.945Z,84.27
2018-11-06T00:16:33.076Z,84.35
2018-11-06T00:17:04.234Z,84.60
2018-11-06T00:17:35.334Z,84.55
2018-11-06T00:18:06.452Z,84.55
2018-11-06T00:18:37.559Z,84.46
2018-11-06T00:19:08.670Z,84.34
2018-11-06T00:19:39.779Z,84.60
2018-11-06T00:20:10.919Z,84.21
2018-11-06T00:20:42.037Z,84.21
2018-11-06T00:21:13.156Z,84.25
2018-11-06T00:21:44.298Z,84.30
2018-11-06T00:22:15.451Z,84.27
2018-11-06T00:22:46.605Z,84.36
2018-11-06T00:23:17.742Z,84.16
2018-11-06T00:23:48.873Z,84.16
2018-11-06T00:24:19.978Z,84.77
2018-11-06T00:24:51.126Z,84.77
2018-11-06T00:25:22.221Z,84.79
2018-11-06T00:25:53.372Z,84.83
2018-11-06T00:26:24.498Z,84.77
2018-11-06T00:26:55.615Z,84.86
2018-11-06T00:27:26.754Z,85.02
2018-11-06T00:27:57.895Z,84.78
2018-11-06T00:28:29.011Z,84.83
2018-11-06T00:29:00.111Z,85.07
2018-11-06T00:29:31.220Z,84.83
2018-11-06T00:30:02.347Z,84.85
2018-11-06T00:30:33.468Z,85.03
2018-11-06T00:31:04.603Z,85.00
2018-11-06T00:31:35.756Z,84.93
2018-11-06T00:32:06.877Z,84.90
2018-11-06T00:32:37.996Z,84.69
2018-11-06T00:33:09.127Z,84.60
2018-11-06T00:33:40.239Z,84.78
2018-11-06T00:34:11.535Z,84.83
2018-11-06T00:34:42.598Z,84.63
2018-11-06T00:35:13.715Z,84.79
2018-11-06T00:35:44.828Z,84.88
2018-11-06T00:36:15.970Z,84.73
2018-11-06T00:36:47.113Z,84.60
2018-11-06T00:37:18.219Z,84.72
2018-11-06T00:37:49.319Z,84.77
2018-11-06T00:38:20.427Z,84.84
2018-11-06T00:38:51.521Z,84.78
2018-11-06T00:39:22.737Z,84.85
2018-11-06T00:39:53.858Z,84.81
2018-11-06T00:40:25.032Z,84.77
2018-11-06T00:40:56.171Z,84.82
2018-11-06T00:41:27.312Z,84.85
2018-11-06T00:41:58.468Z,85.02
2018-11-06T00:42:29.570Z,85.14
2018-11-06T00:43:00.686Z,84.91
2018-11-06T00:43:31.795Z,85.07
2018-11-06T00:44:02.908Z,84.96
2018-11-06T00:44:34.087Z,85.05
2018-11-06T00:45:05.192Z,84.93
2018-11-06T00:45:36.331Z,85.01
2018-11-06T00:46:07.450Z,84.92
2018-11-06T00:46:38.571Z,84.65
2018-11-06T00:47:09.720Z,84.61
2018-11-06T00:47:40.877Z,84.82
2018-11-06T00:48:12.015Z,84.75
2018-11-06T00:48:43.147Z,85.07
2018-11-06T00:49:14.246Z,84.96
2018-11-06T00:49:45.403Z,84.87
2018-11-06T00:50:16.535Z,84.97
2018-11-06T00:50:47.727Z,84.98
2018-11-06T00:51:18.853Z,84.87
2018-11-06T00:51:49.962Z,85.00
2018-11-06T00:52:21.118Z,84.96
2018-11-06T00:52:52.252Z,84.87
2018-11-06T00:53:23.356Z,85.05
2018-11-06T00:53:54.507Z,84.81
2018-11-06T00:54:25.625Z,84.78
2018-11-06T00:54:56.761Z,84.98
2018-11-06T00:55:27.874Z,84.46
2018-11-06T00:55:59.040Z,84.64
2018-11-06T00:56:30.171Z,84.62
2018-11-06T00:57:01.305Z,84.80
2018-11-06T00:57:32.451Z,84.89
2018-11-06T00:58:03.557Z,84.97
2018-11-06T00:58:34.670Z,84.85
2018-11-06T00:59:05.789Z,84.95
2018-11-06T00:59:36.900Z,85.28
2018-11-06T01:00:08.099Z,85.03
2018-11-06T01:00:39.219Z,84.99
2018-11-06T01:01:10.393Z,85.07
2018-11-06T01:01:41.530Z,85.28
2018-11-06T01:02:12.698Z,84.95
2018-11-06T01:02:43.856Z,85.04
2018-11-06T01:03:14.969Z,85.10
2018-11-06T01:03:46.104Z,85.04
2018-11-06T01:04:17.211Z,84.80
2018-11-06T01:04:48.349Z,84.76
2018-11-06T01:05:19.471Z,84.83
2018-11-06T01:05:50.604Z,85.08
2018-11-06T01:06:21.796Z,84.59
2018-11-06T01:06:52.900Z,85.13
2018-11-06T01:07:24.038Z,84.89
2018-11-06T01:07:55.169Z,85.02
2018-11-06T01:08:26.327Z,85.27
2018-11-06T01:08:57.437Z,85.05
2018-11-06T01:09:28.584Z,85.12
2018-11-06T01:09:59.763Z,85.18
2018-11-06T01:10:30.949Z,85.25
2018-11-06T01:11:02.075Z,85.23
2018-11-06T01:11:33.181Z,85.31
2018-11-06T01:12:04.291Z,85.59
2018-11-06T01:12:35.923Z,85.83
2018-11-06T01:13:07.034Z,85.85
2018-11-06T01:13:38.167Z,85.96
2018-11-06T01:14:09.322Z,86.01
2018-11-06T01:14:40.434Z,85.91
2018-11-06T01:15:11.555Z,86.33
2018-11-06T01:15:42.675Z,86.20
2018-11-06T01:16:13.806Z,86.12
2018-11-06T01:16:44.939Z,86.30
2018-11-06T01:17:16.063Z,86.35
2018-11-06T01:17:47.253Z,86.37
2018-11-06T01:18:18.408Z,86.32
2018-11-06T01:18:49.544Z,86.16
2018-11-06T01:19:20.668Z,86.28
2018-11-06T01:19:51.800Z,86.18
2018-11-06T01:20:22.913Z,86.49
2018-11-06T01:20:54.035Z,86.30
2018-11-06T01:21:25.170Z,86.19
2018-11-06T01:21:56.289Z,86.03
2018-11-06T01:22:27.422Z,86.26
2018-11-06T01:22:58.615Z,86.23
2018-11-06T01:23:29.790Z,86.18
2018-11-06T01:24:00.907Z,86.31
2018-11-06T01:24:32.042Z,86.25
2018-11-06T01:25:03.173Z,86.34
2018-11-06T01:25:34.323Z,86.93
2018-11-06T01:26:05.454Z,86.66
2018-11-06T01:26:36.557Z,86.56
2018-11-06T01:27:07.678Z,86.57
2018-11-06T01:27:38.773Z,86.66
2018-11-06T01:28:09.900Z,86.52
2018-11-06T01:28:41.027Z,86.32
2018-11-06T01:29:12.148Z,86.28
2018-11-06T01:29:43.277Z,85.99
2018-11-06T01:30:14.427Z,86.01
2018-11-06T01:30:45.542Z,85.92
2018-11-06T01:31:16.649Z,85.96
2018-11-06T01:31:47.762Z,86.29
2018-11-06T01:32:18.945Z,86.10
2018-11-06T01:32:50.116Z,86.11
2018-11-06T01:33:21.252Z,86.14
2018-11-06T01:33:52.410Z,86.32
2018-11-06T01:34:23.511Z,86.33
2018-11-06T01:34:54.674Z,86.41
2018-11-06T01:35:25.796Z,86.45
2018-11-06T01:35:56.903Z,86.17
2018-11-06T01:36:28.024Z,86.49
2018-11-06T01:36:59.174Z,86.37
2018-11-06T01:37:30.917Z,86.17
2018-11-06T01:38:02.056Z,86.53
2018-11-06T01:38:33.168Z,86.04
2018-11-06T01:39:04.300Z,86.35
2018-11-06T01:39:35.406Z,86.11
2018-11-06T01:40:06.590Z,86.31
2018-11-06T01:40:37.699Z,86.08
2018-11-06T01:41:08.818Z,86.03
2018-11-06T01:41:39.936Z,86.15
2018-11-06T01:42:11.035Z,86.26
2018-11-06T01:42:42.175Z,86.34
2018-11-06T01:43:13.309Z,86.47
2018-11-06T01:43:44.456Z,86.48
2018-11-06T01:44:15.593Z,86.11
2018-11-06T01:44:46.689Z,86.35
2018-11-06T01:45:17.877Z,86.30
2018-11-06T01:45:48.974Z,86.43
2018-11-06T01:46:20.335Z,86.45
2018-11-06T01:46:51.434Z,86.31
2018-11-06T01:47:22.599Z,86.42
2018-11-06T01:47:56.689Z,86.46
2018-11-06T01:48:27.895Z,86.45
2018-11-06T01:48:59.021Z,86.81
2018-11-06T01:49:30.153Z,86.58
2018-11-06T01:50:01.281Z,86.62
2018-11-06T01:50:32.448Z,86.64
2018-11-06T01:51:03.560Z,86.88
2018-11-06T01:51:34.683Z,86.77
2018-11-06T01:52:05.802Z,86.92
2018-11-06T01:52:36.958Z,87.03
2018-11-06T01:53:08.876Z,87.24
2018-11-06T01:53:40.039Z,87.86
2018-11-06T01:54:11.154Z,87.41
2018-11-06T01:54:42.278Z,87.76
2018-11-06T01:55:13.384Z,87.60
2018-11-06T01:55:44.509Z,87.62
2018-11-06T01:56:15.623Z,88.24
2018-11-06T01:56:46.751Z,87.86
2018-11-06T01:57:17.873Z,88.66
2018-11-06T01:57:49.007Z,88.32
2018-11-06T01:58:20.171Z,88.45
2018-11-06T01:58:51.275Z,88.69
2018-11-06T01:59:22.389Z,89.13
2018-11-06T01:59:53.498Z,89.19
2018-11-06T02:00:24.622Z,89.24
2018-11-06T02:00:55.767Z,89.31
2018-11-06T02:01:26.865Z,89.11
2018-11-06T02:01:58.001Z,89.13
2018-11-06T02:02:29.118Z,89.18
2018-11-06T02:03:00.247Z,89.67
2018-11-06T02:03:31.421Z,89.62
2018-11-06T02:04:02.568Z,89.87
2018-11-06T02:04:33.698Z,89.31
2018-11-06T02:05:04.805Z,89.83
2018-11-06T02:05:35.913Z,90.20
2018-11-06T02:06:07.050Z,89.90
2018-11-06T02:06:38.163Z,90.04
2018-11-06T02:07:09.286Z,90.26
2018-11-06T02:07:40.412Z,89.97
2018-11-06T02:08:11.521Z,90.21
2018-11-06T02:08:42.688Z,90.01
2018-11-06T02:09:13.799Z,90.28
2018-11-06T02:09:44.911Z,90.48
2018-11-06T02:10:16.035Z,90.45
2018-11-06T02:10:47.214Z,90.19
2018-11-06T02:11:18.366Z,90.49
2018-11-06T02:11:49.495Z,90.52
2018-11-06T02:12:20.625Z,90.66
2018-11-06T02:12:51.731Z,91.04
2018-11-06T02:13:22.891Z,91.06
2018-11-06T02:13:54.062Z,90.84
2018-11-06T02:14:25.197Z,91.00
2018-11-06T02:14:56.333Z,90.67
2018-11-06T02:15:27.494Z,90.78
2018-11-06T02:15:58.633Z,90.47
2018-11-06T02:16:29.746Z,90.39
2018-11-06T02:17:00.906Z,90.43
2018-11-06T02:17:32.024Z,90.64
2018-11-06T02:18:03.248Z,90.46
2018-11-06T02:18:34.393Z,90.53
2018-11-06T02:19:05.569Z,90.60
2018-11-06T02:19:36.748Z,90.76
2018-11-06T02:20:07.865Z,90.91
2018-11-06T02:20:38.996Z,90.80
2018-11-06T02:21:10.112Z,90.90
2018-11-06T02:21:41.251Z,90.86
2018-11-06T02:22:12.385Z,90.63
2018-11-06T02:22:43.513Z,91.06
2018-11-06T02:23:14.659Z,90.68
2018-11-06T02:23:45.791Z,91.04
2018-11-06T02:24:17.594Z,90.98
2018-11-06T02:24:48.746Z,91.12
2018-11-06T02:25:19.909Z,91.08
2018-11-06T02:25:51.044Z,90.94
2018-11-06T02:26:22.183Z,91.15
2018-11-06T02:26:53.301Z,90.98
2018-11-06T02:27:24.443Z,90.98
2018-11-06T02:27:55.559Z,91.01
2018-11-06T02:28:26.678Z,91.21
2018-11-06T02:28:57.823Z,91.11
2018-11-06T02:29:28.937Z,91.25
2018-11-06T02:30:00.090Z,91.13
2018-11-06T02:30:31.278Z,91.30
2018-11-06T02:31:02.399Z,91.09
2018-11-06T02:31:33.520Z,91.18
2018-11-06T02:32:04.662Z,91.55
2018-11-06T02:32:35.889Z,91.63
2018-11-06T02:33:06.944Z,91.78
2018-11-06T02:33:38.081Z,91.68
2018-11-06T02:34:09.212Z,91.83
2018-11-06T02:34:40.345Z,91.82
2018-11-06T02:35:11.469Z,91.55
2018-11-06T02:35:42.624Z,91.85
2018-11-06T02:36:13.737Z,91.69
2018-11-06T02:36:44.860Z,91.67
2018-11-06T02:37:15.987Z,91.66
2018-11-06T02:37:47.099Z,91.63
2018-11-06T02:38:18.243Z,91.79
2018-11-06T02:38:49.403Z,91.87
2018-11-06T02:39:20.517Z,91.89
2018-11-06T02:39:51.631Z,91.54
2018-11-06T02:40:22.830Z,91.61
2018-11-06T02:40:53.951Z,91.65
2018-11-06T02:41:25.052Z,91.58
2018-11-06T02:41:56.155Z,91.49
2018-11-06T02:42:27.980Z,91.44
2018-11-06T02:42:59.138Z,91.68
2018-11-06T02:43:30.346Z,91.54
2018-11-06T02:44:01.494Z,91.54
2018-11-06T02:44:32.608Z,91.69
2018-11-06T02:45:03.766Z,92.02
2018-11-06T02:45:34.932Z,92.14
2018-11-06T02:46:06.089Z,92.27
2018-11-06T02:46:37.222Z,91.74
2018-11-06T02:47:08.367Z,91.77
2018-11-06T02:47:39.488Z,92.00
2018-11-06T02:48:11.917Z,91.96
2018-11-06T02:48:43.067Z,91.78
2018-11-06T02:49:14.196Z,91.94
2018-11-06T02:49:45.298Z,92.19
2018-11-06T02:50:16.440Z,92.00
2018-11-06T02:50:47.592Z,92.18
2018-11-06T02:51:18.705Z,92.20
2018-11-06T02:51:50.796Z,91.90
2018-11-06T02:52:21.906Z,91.73
2018-11-06T02:52:53.011Z,91.98
2018-11-06T02:53:24.854Z,91.93
2018-11-06T02:53:55.974Z,91.60
2018-11-06T02:54:27.138Z,91.92
2018-11-06T02:54:58.268Z,91.89
2018-11-06T02:55:29.499Z,91.91
2018-11-06T02:56:00.684Z,91.69
2018-11-06T02:56:31.811Z,91.88
2018-11-06T02:57:02.986Z,91.67
2018-11-06T02:57:34.127Z,92.10
2018-11-06T02:58:05.253Z,91.92
2018-11-06T02:58:36.371Z,92.04
2018-11-06T02:59:07.495Z,91.97
2018-11-06T02:59:38.642Z,92.15
2018-11-06T03:00:09.755Z,91.92
2018-11-06T03:00:40.916Z,92.19
2018-11-06T03:01:12.070Z,92.33
2018-11-06T03:01:43.203Z,92.43
2018-11-06T03:02:14.323Z,92.15
2018-11-06T03:02:45.480Z,92.08
2018-11-06T03:03:16.634Z,92.17
2018-11-06T03:03:47.775Z,92.29
2018-11-06T03:04:18.901Z,92.16
2018-11-06T03:04:50.048Z,92.38
2018-11-06T03:05:21.206Z,92.05
2018-11-06T03:05:52.408Z,92.01
2018-11-06T03:06:23.554Z,92.45
2018-11-06T03:06:54.693Z,92.39
2018-11-06T03:07:25.851Z,92.44
2018-11-06T03:07:56.986Z,92.63
2018-11-06T03:08:28.112Z,92.46
2018-11-06T03:08:59.260Z,92.50
2018-11-06T03:09:30.428Z,92.21
2018-11-06T03:10:01.632Z,92.16
2018-11-06T03:10:32.822Z,92.27
2018-11-06T03:11:03.947Z,92.05
2018-11-06T03:11:35.099Z,91.96
2018-11-06T03:12:06.239Z,92.38
2018-11-06T03:12:37.355Z,92.37
2018-11-06T03:13:08.515Z,92.15
2018-11-06T03:13:39.647Z,92.31
2018-11-06T03:14:10.794Z,92.45
2018-11-06T03:14:41.929Z,91.89
2018-11-06T03:15:13.080Z,92.04
2018-11-06T03:15:44.236Z,92.06
2018-11-06T03:16:15.370Z,92.12
2018-11-06T03:16:46.740Z,92.04
2018-11-06T03:17:17.899Z,91.90
2018-11-06T03:17:49.015Z,92.25
2018-11-06T03:18:20.145Z,92.26
2018-11-06T03:18:51.299Z,92.12
2018-11-06T03:19:22.438Z,91.76
2018-11-06T03:19:53.581Z,92.06
2018-11-06T03:20:24.700Z,91.61
2018-11-06T03:20:55.844Z,92.16
2018-11-06T03:21:26.985Z,91.82
2018-11-06T03:21:58.149Z,92.17
2018-11-06T03:22:29.294Z,92.27
2018-11-06T03:23:00.490Z,92.34
2018-11-06T03:23:31.647Z,92.49
2018-11-06T03:24:02.773Z,92.01
2018-11-06T03:24:33.912Z,92.07
2018-11-06T03:25:05.050Z,92.46
2018-11-06T03:25:36.171Z,92.19
2018-11-06T03:26:07.291Z,92.16
2018-11-06T03:26:38.393Z,92.27
2018-11-06T03:27:09.609Z,92.51
2018-11-06T03:27:40.642Z,92.12
2018-11-06T03:28:11.850Z,92.20
2018-11-06T03:28:43.012Z,92.25
2018-11-06T03:29:14.159Z,92.31
2018-11-06T03:29:45.269Z,92.56
2018-11-06T03:30:16.403Z,92.45
2018-11-06T03:30:47.566Z,92.32
2018-11-06T03:31:18.722Z,92.42
2018-11-06T03:31:49.842Z,92.33
2018-11-06T03:32:20.981Z,92.12
2018-11-06T03:32:52.152Z,92.34
2018-11-06T03:33:23.319Z,92.42
2018-11-06T03:33:54.435Z,91.96
2018-11-06T03:34:25.576Z,91.94
2018-11-06T03:34:56.691Z,92.11
2018-11-06T03:35:27.830Z,91.93
2018-11-06T03:35:58.951Z,92.09
2018-11-06T03:36:30.067Z,91.87
2018-11-06T03:37:01.211Z,91.88
2018-11-06T03:37:32.368Z,92.29
2018-11-06T03:38:03.546Z,92.14
2018-11-06T03:38:34.701Z,92.02
2018-11-06T03:39:05.841Z,92.04
2018-11-06T03:39:36.981Z,92.38
2018-11-06T03:40:08.128Z,92.61
2018-11-06T03:40:39.268Z,92.77
2018-11-06T03:41:10.428Z,92.51
2018-11-06T03:41:41.577Z,92.71
2018-11-06T03:42:12.728Z,92.74
2018-11-06T03:42:43.851Z,92.68
2018-11-06T03:43:14.971Z,92.69
2018-11-06T03:43:46.120Z,92.62
2018-11-06T03:44:17.263Z,92.82
2018-11-06T03:44:48.421Z,92.41
2018-11-06T03:45:19.554Z,92.71
2018-11-06T03:45:50.660Z,92.82
2018-11-06T03:46:21.802Z,92.49
2018-11-06T03:46:53.481Z,92.71
2018-11-06T03:47:24.622Z,92.29
2018-11-06T03:47:55.739Z,92.44
2018-11-06T03:48:26.917Z,91.77
2018-11-06T03:48:58.033Z,91.89
2018-11-06T03:49:29.216Z,91.78
2018-11-06T03:50:00.356Z,91.95
2018-11-06T03:50:31.466Z,91.54
2018-11-06T03:51:02.590Z,91.74
2018-11-06T03:51:33.689Z,91.37
2018-11-06T03:52:04.823Z,91.52
2018-11-06T03:52:35.976Z,91.21
2018-11-06T03:53:07.095Z,91.74
2018-11-06T03:53:38.228Z,91.14
2018-11-06T03:54:09.368Z,91.41
2018-11-06T03:54:40.540Z,91.05
2018-11-06T03:55:11.692Z,91.42
2018-11-06T03:55:42.843Z,91.27
2018-11-06T03:56:13.992Z,90.90
2018-11-06T03:56:45.137Z,91.06
2018-11-06T03:57:16.260Z,91.09
2018-11-06T03:57:47.387Z,91.06
2018-11-06T03:58:18.514Z,91.04
2018-11-06T03:58:49.674Z,91.07
2018-11-06T03:59:20.774Z,90.89
2018-11-06T03:59:51.892Z,91.07
2018-11-06T04:00:23.004Z,90.98
2018-11-06T04:00:54.178Z,90.61
2018-11-06T04:01:25.285Z,90.51
2018-11-06T04:01:56.436Z,90.76
2018-11-06T04:02:27.579Z,90.87
2018-11-06T04:02:58.696Z,90.84
2018-11-06T04:03:29.834Z,90.41
2018-11-06T04:04:00.934Z,90.81
2018-11-06T04:04:32.060Z,90.42
2018-11-06T04:05:03.226Z,90.55
2018-11-06T04:05:34.331Z,90.44
2018-11-06T04:06:05.459Z,90.23
2018-11-06T04:06:36.614Z,90.26
2018-11-06T04:07:07.729Z,90.14
2018-11-06T04:07:38.846Z,89.99
2018-11-06T04:08:09.954Z,90.00
2018-11-06T04:08:41.077Z,90.28
2018-11-06T04:09:12.207Z,89.69
2018-11-06T04:09:43.332Z,89.95
2018-11-06T04:10:14.515Z,89.59
2018-11-06T04:10:45.627Z,89.56
2018-11-06T04:11:16.766Z,89.73
2018-11-06T04:11:47.883Z,89.72
2018-11-06T04:12:19.008Z,89.23
2018-11-06T04:12:50.159Z,89.11
2018-11-06T04:13:21.293Z,89.06
2018-11-06T04:13:52.398Z,89.30
2018-11-06T04:14:23.511Z,89.31
2018-11-06T04:14:54.666Z,89.41
2018-11-06T04:15:25.784Z,89.42
2018-11-06T04:15:56.910Z,89.31
2018-11-06T04:16:28.049Z,89.39
2018-11-06T04:16:59.202Z,89.22
2018-11-06T04:17:30.329Z,89.37
2018-11-06T04:18:01.462Z,89.71
2018-11-06T04:18:32.611Z,89.50
2018-11-06T04:19:03.758Z,89.75
2018-11-06T04:19:34.868Z,90.14
2018-11-06T04:20:06.044Z,90.07
2018-11-06T04:20:37.181Z,90.24
2018-11-06T04:21:08.307Z,89.79
2018-11-06T04:21:39.449Z,90.16
2018-11-06T04:22:10.585Z,90.27
2018-11-06T04:22:41.698Z,90.25
2018-11-06T04:23:12.802Z,90.19
2018-11-06T04:23:43.944Z,90.49
2018-11-06T04:24:15.071Z,90.60
2018-11-06T04:24:46.188Z,90.45
2018-11-06T04:25:17.335Z,90.73
2018-11-06T04:25:48.463Z,90.59
2018-11-06T04:26:19.597Z,90.68
2018-11-06T04:26:50.728Z,90.26
2018-11-06T04:27:21.862Z,90.19
2018-11-06T04:27:52.981Z,90.43
2018-11-06T04:28:24.095Z,90.08
2018-11-06T04:28:55.245Z,90.03
2018-11-06T04:29:26.400Z,90.30
2018-11-06T04:29:57.516Z,90.37
2018-11-06T04:30:28.688Z,90.07
2018-11-06T04:30:59.819Z,90.09
2018-11-06T04:31:30.975Z,89.79
2018-11-06T04:32:02.098Z,89.93
2018-11-06T04:32:33.202Z,90.09
2018-11-06T04:33:04.338Z,89.65
2018-11-06T04:33:35.451Z,89.76
2018-11-06T04:34:06.609Z,89.36
2018-11-06T04:34:37.717Z,89.23
2018-11-06T04:35:08.885Z,89.25
2018-11-06T04:35:40.054Z,89.07
2018-11-06T04:36:48.417Z,89.13
2018-11-06T04:37:19.555Z,89.23
2018-11-06T04:37:50.681Z,89.22
2018-11-06T04:38:21.782Z,89.28
2018-11-06T04:38:52.892Z,88.96
2018-11-06T04:39:23.996Z,88.78
2018-11-06T04:39:55.118Z,89.04
2018-11-06T04:40:26.296Z,88.84
2018-11-06T04:40:57.455Z,88.60
2018-11-06T04:41:28.572Z,88.87
2018-11-06T04:41:59.738Z,88.65
2018-11-06T04:42:30.864Z,88.62
2018-11-06T04:43:01.990Z,88.57
2018-11-06T04:43:33.113Z,88.40
2018-11-06T04:44:04.217Z,89.15
2018-11-06T04:44:35.349Z,88.44
2018-11-06T04:45:06.462Z,88.39
2018-11-06T04:45:37.626Z,88.17
2018-11-06T04:46:08.746Z,88.03
2018-11-06T04:46:39.855Z,88.03
2018-11-06T04:47:10.951Z,88.09
2018-11-06T04:47:42.061Z,87.91
2018-11-06T04:48:13.186Z,87.69
2018-11-06T04:48:44.300Z,88.07
2018-11-06T04:49:15.481Z,87.97
2018-11-06T04:49:46.932Z,87.80
2018-11-06T04:50:19.738Z,87.78
2018-11-06T04:50:50.871Z,87.63
2018-11-06T04:51:22.044Z,87.69
2018-11-06T04:51:53.165Z,87.71
2018-11-06T04:52:24.265Z,87.71
2018-11-06T04:52:55.368Z,87.69
2018-11-06T04:53:26.499Z,87.59
2018-11-06T04:53:57.609Z,87.65
2018-11-06T04:54:28.733Z,87.93
2018-11-06T04:54:59.843Z,87.71
2018-11-06T04:55:31.018Z,87.60
2018-11-06T04:56:02.152Z,87.70
2018-11-06T04:56:33.307Z,87.79
2018-11-06T04:57:04.452Z,87.64
2018-11-06T04:57:35.546Z,87.62
2018-11-06T04:58:06.668Z,87.88
2018-11-06T04:58:37.773Z,87.93
2018-11-06T04:59:08.926Z,87.87
2018-11-06T04:59:40.078Z,88.03
2018-11-06T05:00:11.260Z,87.69
2018-11-06T05:00:42.428Z,87.66
2018-11-06T05:01:13.544Z,87.66
2018-11-06T05:01:44.723Z,87.70
2018-11-06T05:02:15.917Z,87.68
2018-11-06T05:02:47.026Z,87.79
2018-11-06T05:03:18.128Z,87.40
2018-11-06T05:03:49.232Z,87.36
2018-11-06T05:04:20.352Z,87.17
2018-11-06T05:04:51.475Z,87.50
2018-11-06T05:05:22.587Z,87.49
2018-11-06T05:05:53.705Z,87.38
2018-11-06T05:06:24.838Z,87.56
2018-11-06T05:06:55.975Z,87.66
2018-11-06T05:07:27.109Z,87.18
2018-11-06T05:07:58.271Z,87.43
2018-11-06T05:08:29.404Z,87.45
2018-11-06T05:09:00.506Z,87.17
2018-11-06T05:09:31.616Z,87.20
2018-11-06T05:10:02.769Z,87.40
2018-11-06T05:10:33.913Z,87.15
2018-11-06T05:11:05.015Z,86.88
2018-11-06T05:11:36.127Z,87.16
2018-11-06T05:12:07.262Z,87.05
2018-11-06T05:12:38.389Z,87.39
2018-11-06T05:13:09.549Z,87.12
2018-11-06T05:13:40.705Z,87.17
2018-11-06T05:14:11.860Z,87.47
2018-11-06T05:14:42.964Z,87.44
2018-11-06T05:15:14.065Z,87.08
2018-11-06T05:15:45.197Z,87.43
2018-11-06T05:16:16.345Z,87.51
2018-11-06T05:16:47.476Z,87.47
2018-11-06T05:17:18.611Z,87.52
2018-11-06T05:17:49.772Z,87.14
2018-11-06T05:18:20.911Z,87.36
2018-11-06T05:18:52.039Z,87.11
2018-11-06T05:19:23.146Z,86.98
2018-11-06T05:19:54.256Z,87.09
2018-11-06T05:20:25.386Z,87.02
2018-11-06T05:20:56.483Z,87.13
2018-11-06T05:21:27.587Z,86.66
2018-11-06T05:21:58.682Z,86.93
2018-11-06T05:22:29.780Z,86.74
2018-11-06T05:23:00.945Z,86.88
2018-11-06T05:23:32.364Z,86.60
2018-11-06T05:24:03.476Z,86.43
2018-11-06T05:24:35.214Z,86.35
2018-11-06T05:25:06.321Z,86.58
2018-11-06T05:25:37.496Z,86.45
2018-11-06T05:26:08.587Z,86.34
2018-11-06T05:26:39.714Z,86.54
2018-11-06T05:27:10.838Z,85.93
2018-11-06T05:27:41.962Z,86.10
2018-11-06T05:28:13.154Z,86.05
2018-11-06T05:28:44.314Z,86.38
2018-11-06T05:29:15.409Z,85.95
2018-11-06T05:29:46.512Z,85.90
2018-11-06T05:30:17.613Z,85.97
2018-11-06T05:30:48.715Z,85.84
2018-11-06T05:31:19.844Z,85.85
2018-11-06T05:31:50.970Z,85.74
2018-11-06T05:32:22.083Z,85.79
2018-11-06T05:32:53.281Z,85.71
2018-11-06T05:33:24.365Z,85.79
2018-11-06T05:33:55.469Z,85.95
2018-11-06T05:34:26.574Z,86.01
2018-11-06T05:34:57.801Z,85.77
2018-11-06T05:35:28.848Z,85.96
2018-11-06T05:35:59.955Z,85.92
2018-11-06T05:36:31.076Z,85.88
2018-11-06T05:37:02.203Z,85.93
2018-11-06T05:37:33.335Z,85.82
2018-11-06T05:38:04.463Z,85.75
2018-11-06T05:38:35.631Z,86.33
2018-11-06T05:39:06.860Z,85.85
2018-11-06T05:39:38.021Z,85.82
2018-11-06T05:40:09.079Z,85.84
2018-11-06T05:40:40.250Z,85.76
2018-11-06T05:41:11.418Z,85.35
2018-11-06T05:41:42.574Z,85.44
2018-11-06T05:42:13.688Z,85.42
2018-11-06T05:42:44.809Z,85.38
2018-11-06T05:43:15.922Z,85.15
2018-11-06T05:43:47.083Z,84.87
2018-11-06T05:44:18.781Z,85.24
2018-11-06T05:44:49.900Z,85.01
2018-11-06T05:45:21.079Z,85.19
2018-11-06T05:45:52.211Z,85.00
2018-11-06T05:46:23.379Z,85.27
2018-11-06T05:46:54.505Z,85.06
2018-11-06T05:47:25.622Z,84.90
2018-11-06T05:47:56.731Z,84.99
2018-11-06T05:48:27.858Z,84.95
2018-11-06T05:48:58.982Z,85.18
2018-11-06T05:49:30.122Z,84.69
2018-11-06T05:50:01.285Z,85.37
2018-11-06T05:50:33.573Z,85.22
2018-11-06T05:51:04.678Z,85.38
2018-11-06T05:51:35.810Z,85.49
2018-11-06T05:52:06.915Z,85.25
2018-11-06T05:52:38.020Z,85.00
2018-11-06T05:53:09.161Z,85.41
2018-11-06T05:53:40.291Z,85.10
2018-11-06T05:54:11.473Z,85.09
2018-11-06T05:54:42.624Z,84.73
2018-11-06T05:55:13.758Z,84.84
2018-11-06T05:55:44.874Z,85.15
2018-11-06T05:56:15.971Z,85.25
2018-11-06T05:56:47.081Z,85.38
2018-11-06T05:57:18.283Z,85.34
2018-11-06T05:57:49.395Z,85.06
2018-11-06T05:58:20.494Z,84.73
2018-11-06T05:58:51.603Z,84.46
2018-11-06T05:59:22.706Z,84.37
2018-11-06T05:59:53.894Z,84.42
2018-11-06T06:00:25.062Z,84.35
2018-11-06T06:00:56.146Z,84.22
2018-11-06T06:01:27.273Z,83.94
2018-11-06T06:01:58.373Z,83.89
2018-11-06T06:02:29.559Z,83.90
2018-11-06T06:03:00.685Z,83.36
2018-11-06T06:03:31.791Z,83.40
2018-11-06T06:04:02.944Z,83.23
2018-11-06T06:04:34.077Z,83.37
2018-11-06T06:05:05.244Z,83.32
2018-11-06T06:05:36.373Z,82.96
2018-11-06T06:06:07.497Z,83.26
2018-11-06T06:06:38.641Z,83.01
2018-11-06T06:07:09.761Z,82.84
2018-11-06T06:07:40.938Z,82.43
2018-11-06T06:08:12.091Z,82.66
2018-11-06T06:08:43.216Z,82.62
2018-11-06T06:09:14.343Z,82.77
2018-11-06T06:09:45.455Z,83.16
2018-11-06T06:10:16.645Z,82.99
2018-11-06T06:10:47.770Z,82.51
2018-11-06T06:11:18.947Z,82.48
2018-11-06T06:11:50.051Z,82.58
2018-11-06T06:12:21.156Z,82.42
2018-11-06T06:12:52.287Z,82.31
2018-11-06T06:13:23.454Z,81.81
2018-11-06T06:13:54.593Z,81.79
2018-11-06T06:14:25.718Z,82.11
2018-11-06T06:14:56.856Z,81.87
2018-11-06T06:15:27.972Z,82.09
2018-11-06T06:15:59.102Z,81.73
2018-11-06T06:16:30.250Z,81.88
2018-11-06T06:17:01.394Z,81.93
2018-11-06T06:17:32.526Z,82.10
2018-11-06T06:18:03.659Z,81.62
2018-11-06T06:18:34.818Z,81.44
2018-11-06T06:19:05.969Z,81.78
2018-11-06T06:19:37.111Z,82.00
2018-11-06T06:20:08.210Z,82.09
2018-11-06T06:20:39.369Z,82.30
2018-11-06T06:21:10.479Z,82.00
2018-11-06T06:21:41.583Z,81.51
2018-11-06T06:22:12.675Z,81.49
2018-11-06T06:22:43.788Z,80.94
2018-11-06T06:23:14.909Z,81.15
2018-11-06T06:23:46.052Z,81.02
2018-11-06T06:24:17.199Z,81.00
2018-11-06T06:24:48.325Z,81.24
2018-11-06T06:25:19.463Z,81.37
2018-11-06T06:25:50.598Z,81.20
2018-11-06T06:26:21.701Z,81.83
2018-11-06T06:26:52.815Z,81.45
2018-11-06T06:27:23.956Z,81.29
2018-11-06T06:27:55.081Z,80.59
2018-11-06T06:28:26.238Z,80.03
2018-11-06T06:28:57.322Z,78.97
2018-11-06T06:29:28.430Z,78.97
2018-11-06T06:29:59.540Z,78.47
2018-11-06T06:30:30.663Z,78.33
2018-11-06T06:31:01.875Z,77.96
2018-11-06T06:31:32.985Z,77.42
2018-11-06T06:32:04.103Z,77.37
2018-11-06T06:32:35.239Z,76.75
2018-11-06T06:33:06.343Z,76.03
2018-11-06T06:33:37.486Z,76.01
2018-11-06T06:34:08.599Z,76.31
2018-11-06T06:34:39.765Z,76.33
2018-11-06T06:35:10.999Z,76.53
2018-11-06T06:35:42.003Z,76.66
2018-11-06T06:36:13.158Z,76.83
2018-11-06T06:36:45.103Z,76.66
2018-11-06T06:37:16.233Z,76.40
2018-11-06T06:37:47.353Z,76.74
2018-11-06T06:38:18.454Z,76.82
2018-11-06T06:38:49.679Z,76.55
2018-11-06T06:39:20.750Z,76.55
2018-11-06T06:39:51.893Z,76.81
2018-11-06T06:40:23.062Z,76.41
2018-11-06T06:40:54.833Z,76.81
2018-11-06T06:41:26.339Z,77.14
2018-11-06T06:41:58.118Z,76.81